Time;durP1;ratioP1;P1;durP2;ratioP2;P2;SDS_P1;SDS_P2;PMS_P1;PMS_P2;Temp;Humidity;BMP_temperature;BMP_pressure;BME280_temperature;BME280_humidity;BME280_pressure;Samples;Min_cycle;Max_cycle;Signal;HPM_P1;HPM_P2
2022/08/08 00:00:42;;;;;;;2.80;2.60;;;;;;;;;;5005395;28;20025;-74
2022/08/08 00:03:14;;;;;;;3.22;2.92;;;;;;;;;;5001859;28;20038;-74
2022/08/08 00:05:49;;;;;;;2.80;2.60;;;;;;;;;;5004856;28;20030;-74
2022/08/08 00:08:18;;;;;;;3.00;2.80;;;;;;;;;;5002094;28;20017;-74
2022/08/08 00:11:06;;;;;;;4.95;3.05;;;;;;;;;;5006195;28;20072;-74
2022/08/08 00:13:38;;;;;;;4.28;3.10;;;;;;;;;;5001271;28;20083;-74
2022/08/08 00:16:07;;;;;;;3.00;2.80;;;;;;;;;;5004848;28;20413;-74
2022/08/08 00:18:43;;;;;;;3.00;2.72;;;;;;;;;;5000313;28;20032;-74
2022/08/08 00:21:11;;;;;;;3.80;2.90;;;;;;;;;;5005556;28;20188;-73
2022/08/08 00:23:45;;;;;;;4.50;3.20;;;;;;;;;;5001343;28;20049;-74
2022/08/08 00:26:14;;;;;;;3.28;2.97;;;;;;;;;;5001900;28;20049;-74
2022/08/08 00:28:46;;;;;;;3.55;2.78;;;;;;;;;;5001828;28;20407;-74
2022/08/08 00:31:17;;;;;;;3.08;2.88;;;;;;;;;;4996778;28;20614;-74
2022/08/08 00:33:48;;;;;;;3.40;3.10;;;;;;;;;;4998971;28;20131;-74
2022/08/08 00:36:27;;;;;;;4.13;2.92;;;;;;;;;;5001003;28;20171;-73
2022/08/08 00:39:07;;;;;;;4.25;3.13;;;;;;;;;;4999886;28;20030;-74
2022/08/08 00:41:33;;;;;;;4.05;3.45;;;;;;;;;;5000405;28;20037;-74
2022/08/08 00:44:02;;;;;;;5.22;3.47;;;;;;;;;;5001084;28;20041;-74
2022/08/08 00:46:47;;;;;;;4.97;3.72;;;;;;;;;;5001082;28;20021;-74
2022/08/08 00:49:16;;;;;;;3.42;3.13;;;;;;;;;;5000198;28;20037;-73
2022/08/08 00:51:48;;;;;;;4.10;3.20;;;;;;;;;;5002410;28;20103;-73
2022/08/08 00:54:34;;;;;;;3.22;2.92;;;;;;;;;;4992155;28;20029;-74
2022/08/08 00:57:19;;;;;;;3.10;2.88;;;;;;;;;;4988519;28;20046;-74
2022/08/08 00:59:51;;;;;;;3.30;2.92;;;;;;;;;;4997705;28;20534;-74
2022/08/08 01:02:23;;;;;;;3.17;2.95;;;;;;;;;;5002412;28;20485;-73
2022/08/08 01:05:09;;;;;;;3.13;2.70;;;;;;;;;;5001467;28;20056;-74
2022/08/08 01:07:54;;;;;;;3.03;2.72;;;;;;;;;;4987988;28;20552;-73
2022/08/08 01:10:32;;;;;;;3.25;2.75;;;;;;;;;;5005727;28;20037;-73
2022/08/08 01:13:17;;;;;;;2.90;2.58;;;;;;;;;;5003152;28;20415;-73
2022/08/08 01:15:44;;;;;;;2.88;2.67;;;;;;;;;;5004637;28;20407;-74
2022/08/08 01:18:39;;;;;;;3.17;2.92;;;;;;;;;;5005691;28;20528;-74
2022/08/08 01:21:11;;;;;;;3.33;2.90;;;;;;;;;;4961298;28;20035;-74
2022/08/08 01:23:55;;;;;;;3.53;2.70;;;;;;;;;;5003307;28;20549;-73
2022/08/08 01:26:45;;;;;;;3.35;2.78;;;;;;;;;;4998863;28;20032;-74
2022/08/08 01:29:11;;;;;;;3.03;2.60;;;;;;;;;;4997580;28;20041;-73
2022/08/08 01:31:56;;;;;;;3.15;2.95;;;;;;;;;;5002386;28;20395;-73
2022/08/08 01:34:37;;;;;;;2.85;2.65;;;;;;;;;;4997397;28;20451;-73
2022/08/08 01:37:14;;;;;;;3.42;3.05;;;;;;;;;;4997879;28;20029;-74
2022/08/08 01:39:59;;;;;;;3.08;2.83;;;;;;;;;;4994717;28;20045;-73
2022/08/08 01:42:31;;;;;;;4.15;2.85;;;;;;;;;;5004328;28;20032;-74
2022/08/08 01:45:17;;;;;;;3.75;3.10;;;;;;;;;;4992324;28;20287;-73
2022/08/08 01:47:59;;;;;;;4.43;2.67;;;;;;;;;;4985638;28;20042;-73
2022/08/08 01:50:44;;;;;;;4.40;2.83;;;;;;;;;;5007275;28;20028;-74
2022/08/08 01:53:39;;;;;;;3.88;2.70;;;;;;;;;;5010102;28;20030;-74
2022/08/08 01:56:20;;;;;;;4.22;2.60;;;;;;;;;;5006467;28;20108;-74
2022/08/08 01:58:57;;;;;;;3.00;2.80;;;;;;;;;;5007784;28;20397;-74
2022/08/08 02:01:35;;;;;;;3.22;2.92;;;;;;;;;;5001834;28;20478;-74
2022/08/08 02:04:24;;;;;;;3.00;2.67;;;;;;;;;;5007880;28;20037;-74
2022/08/08 02:07:05;;;;;;;2.67;2.47;;;;;;;;;;5010777;28;20033;-73
2022/08/08 02:09:32;;;;;;;3.58;3.00;;;;;;;;;;5008251;28;20514;-73
2022/08/08 02:11:58;;;;;;;4.80;3.15;;;;;;;;;;5005171;28;20370;-74
2022/08/08 02:14:31;;;;;;;4.25;3.00;;;;;;;;;;5008106;28;20468;-73
2022/08/08 02:17:10;;;;;;;3.15;2.85;;;;;;;;;;5007010;28;20026;-73
2022/08/08 02:19:42;;;;;;;3.38;2.70;;;;;;;;;;5008437;28;20033;-73
2022/08/08 02:22:33;;;;;;;3.22;2.70;;;;;;;;;;5005406;28;20441;-73
2022/08/08 02:25:02;;;;;;;4.20;3.13;;;;;;;;;;5008405;28;20041;-73
2022/08/08 02:27:47;;;;;;;3.38;2.70;;;;;;;;;;5004697;28;20045;-73
2022/08/08 02:30:35;;;;;;;2.78;2.47;;;;;;;;;;5002593;28;20034;-72
2022/08/08 02:33:20;;;;;;;3.25;2.95;;;;;;;;;;5009334;28;20469;-73
2022/08/08 02:35:53;;;;;;;4.15;3.35;;;;;;;;;;5003715;28;20451;-73
2022/08/08 02:38:38;;;;;;;3.88;3.58;;;;;;;;;;5003689;28;20434;-73
2022/08/08 02:41:07;;;;;;;6.43;3.70;;;;;;;;;;4999498;28;20402;-73
2022/08/08 02:43:46;;;;;;;4.20;2.90;;;;;;;;;;5005466;28;20465;-73
2022/08/08 02:46:31;;;;;;;3.40;3.10;;;;;;;;;;5002214;28;20421;-73
2022/08/08 02:49:12;;;;;;;3.20;3.00;;;;;;;;;;5003742;28;20132;-72
2022/08/08 02:51:41;;;;;;;3.97;3.53;;;;;;;;;;5008120;28;20029;-73
2022/08/08 02:54:07;;;;;;;5.30;3.15;;;;;;;;;;5002033;28;20044;-73
2022/08/08 02:56:43;;;;;;;4.10;3.70;;;;;;;;;;5001882;28;20018;-73
2022/08/08 02:59:28;;;;;;;3.92;3.10;;;;;;;;;;5003504;28;20087;-73
2022/08/08 03:01:57;;;;;;;4.03;3.65;;;;;;;;;;5001680;28;20269;-73
2022/08/08 03:04:38;;;;;;;7.35;3.95;;;;;;;;;;5002611;28;20039;-73
2022/08/08 03:07:04;;;;;;;;;;;;;;;;;;5004715;28;20029;-72
2022/08/08 03:09:36;;;;;;;4.78;3.50;;;;;;;;;;5007808;28;19956;-73
2022/08/08 03:12:21;;;;;;;3.95;3.60;;;;;;;;;;5000896;28;20029;-73
2022/08/08 03:14:53;;;;;;;4.60;3.50;;;;;;;;;;5005131;28;20389;-72
2022/08/08 03:17:32;;;;;;;4.28;3.20;;;;;;;;;;5003058;28;20598;-73
2022/08/08 03:20:04;;;;;;;3.63;3.33;;;;;;;;;;5002472;28;20039;-73
2022/08/08 03:22:33;;;;;;;3.63;3.33;;;;;;;;;;5001962;28;20424;-73
2022/08/08 03:25:01;;;;;;;4.28;3.50;;;;;;;;;;5004372;28;20041;-73
2022/08/08 03:27:35;;;;;;;4.00;3.70;;;;;;;;;;4958899;28;1381760;-73
2022/08/08 03:30:03;;;;;;;3.75;3.45;;;;;;;;;;5003555;28;20481;-72
2022/08/08 03:35:16;;;;;;;3.75;3.30;;;;;;;;;;5008152;28;20233;-73
2022/08/08 03:37:42;;;;;;;3.75;3.35;;;;;;;;;;5016053;28;20049;-73
2022/08/08 03:40:09;;;;;;;3.70;3.40;;;;;;;;;;5005104;28;20034;-73
2022/08/08 03:42:37;;;;;;;3.97;3.58;;;;;;;;;;5005265;28;20486;-73
2022/08/08 03:45:11;;;;;;;3.78;3.42;;;;;;;;;;4999803;28;20176;-73
2022/08/08 03:47:38;;;;;;;4.72;3.53;;;;;;;;;;5002882;28;20268;-73
2022/08/08 03:50:04;;;;;;;3.75;3.40;;;;;;;;;;5010748;28;20036;-73
2022/08/08 03:52:31;;;;;;;4.45;3.70;;;;;;;;;;5009005;28;20084;-73
2022/08/08 03:54:57;;;;;;;4.93;3.08;;;;;;;;;;5007097;28;20542;-73
2022/08/08 03:57:23;;;;;;;3.88;3.13;;;;;;;;;;5007201;28;20121;-73
2022/08/08 03:59:49;;;;;;;4.15;3.75;;;;;;;;;;5009878;28;20037;-73
2022/08/08 04:02:19;;;;;;;3.92;3.60;;;;;;;;;;4999519;28;20804;-73
2022/08/08 04:04:46;;;;;;;3.70;3.40;;;;;;;;;;5003111;28;20048;-73
2022/08/08 04:07:12;;;;;;;4.10;3.70;;;;;;;;;;5000442;28;20088;-73
2022/08/08 04:09:39;;;;;;;6.53;3.90;;;;;;;;;;5001565;28;20065;-73
2022/08/08 04:12:05;;;;;;;5.72;3.47;;;;;;;;;;5001815;28;20436;-73
2022/08/08 04:14:31;;;;;;;3.75;3.45;;;;;;;;;;5002749;28;20030;-74
2022/08/08 04:16:58;;;;;;;4.15;3.67;;;;;;;;;;5003442;28;20024;-73
2022/08/08 04:19:24;;;;;;;5.07;3.90;;;;;;;;;;5000305;28;20140;-73
2022/08/08 04:21:50;;;;;;;3.92;3.58;;;;;;;;;;5007054;28;20273;-74
2022/08/08 04:24:16;;;;;;;4.10;3.53;;;;;;;;;;5001302;28;20092;-73
2022/08/08 04:26:42;;;;;;;3.80;3.50;;;;;;;;;;5001016;28;20030;-73
2022/08/08 04:29:09;;;;;;;4.30;3.90;;;;;;;;;;5000813;28;20050;-73
2022/08/08 04:31:35;;;;;;;4.10;3.55;;;;;;;;;;5002432;28;20040;-73
2022/08/08 04:34:01;;;;;;;5.50;3.63;;;;;;;;;;5000629;28;20044;-73
2022/08/08 04:36:27;;;;;;;7.95;3.92;;;;;;;;;;4998883;28;20113;-73
2022/08/08 04:38:53;;;;;;;3.97;3.65;;;;;;;;;;5003428;28;20112;-73
2022/08/08 04:41:19;;;;;;;4.30;3.88;;;;;;;;;;4998759;28;20049;-73
2022/08/08 04:43:46;;;;;;;6.03;4.25;;;;;;;;;;5009791;28;20046;-73
2022/08/08 04:46:12;;;;;;;7.97;4.38;;;;;;;;;;4997903;28;20029;-73
2022/08/08 04:48:38;;;;;;;13.63;4.22;;;;;;;;;;5005277;28;20379;-73
2022/08/08 04:51:04;;;;;;;10.32;5.18;;;;;;;;;;5002218;28;20021;-73
2022/08/08 04:53:30;;;;;;;8.27;5.07;;;;;;;;;;5002296;28;20080;-73
2022/08/08 04:55:57;;;;;;;8.00;5.30;;;;;;;;;;5007446;28;20018;-73
2022/08/08 04:58:23;;;;;;;7.85;6.22;;;;;;;;;;4988731;28;20445;-73
2022/08/08 05:00:49;;;;;;;10.27;7.88;;;;;;;;;;5008516;28;20386;-73
2022/08/08 05:03:15;;;;;;;13.02;9.02;;;;;;;;;;5008894;28;20030;-74
2022/08/08 05:05:42;;;;;;;10.82;8.48;;;;;;;;;;5004311;28;20075;-73
2022/08/08 05:08:09;;;;;;;12.05;9.82;;;;;;;;;;5007778;28;20030;-73
2022/08/08 05:10:35;;;;;;;10.52;8.55;;;;;;;;;;5007584;28;20429;-73
2022/08/08 05:13:02;;;;;;;11.82;7.78;;;;;;;;;;5007957;28;20354;-73
2022/08/08 05:15:28;;;;;;;9.63;7.35;;;;;;;;;;5005550;28;20536;-73
2022/08/08 05:17:54;;;;;;;12.68;7.22;;;;;;;;;;5008970;28;20034;-73
2022/08/08 05:20:21;;;;;;;10.90;6.68;;;;;;;;;;5002459;28;20034;-73
2022/08/08 05:22:49;;;;;;;10.93;7.82;;;;;;;;;;5009270;28;20018;-73
2022/08/08 05:25:15;;;;;;;9.13;7.03;;;;;;;;;;5000056;28;20045;-73
2022/08/08 05:27:41;;;;;;;8.50;6.40;;;;;;;;;;5007205;28;20022;-73
2022/08/08 05:30:09;;;;;;;6.78;6.05;;;;;;;;;;5002620;28;20029;-73
2022/08/08 05:32:37;;;;;;;6.60;5.15;;;;;;;;;;5010509;28;20033;-73
2022/08/08 05:35:04;;;;;;;7.93;5.45;;;;;;;;;;5003914;28;20029;-73
2022/08/08 05:37:31;;;;;;;5.28;4.55;;;;;;;;;;5004549;28;20397;-73
2022/08/08 05:40:00;;;;;;;4.10;3.78;;;;;;;;;;5003238;28;20060;-73
2022/08/08 05:42:37;;;;;;;4.10;3.70;;;;;;;;;;5005885;28;20025;-73
2022/08/08 05:45:03;;;;;;;4.18;3.80;;;;;;;;;;5006582;28;20103;-73
2022/08/08 05:47:30;;;;;;;4.30;3.53;;;;;;;;;;5004898;28;20109;-73
2022/08/08 05:49:58;;;;;;;5.00;3.63;;;;;;;;;;5002603;28;20076;-73
2022/08/08 05:52:24;;;;;;;3.92;3.63;;;;;;;;;;5002640;28;20025;-74
2022/08/08 05:54:50;;;;;;;4.47;3.30;;;;;;;;;;5000225;28;20057;-73
2022/08/08 05:57:17;;;;;;;3.63;3.33;;;;;;;;;;4994784;28;20271;-73
2022/08/08 05:59:48;;;;;;;4.63;3.35;;;;;;;;;;5004217;28;20137;-73
2022/08/08 06:05:09;;;;;;;4.10;3.25;;;;;;;;;;5007444;28;20086;-73
2022/08/08 06:07:37;;;;;;;3.80;3.40;;;;;;;;;;5008121;28;20021;-73
2022/08/08 06:10:05;;;;;;;3.50;3.20;;;;;;;;;;5003175;28;20336;-73
2022/08/08 06:12:33;;;;;;;5.53;3.40;;;;;;;;;;5007520;28;20030;-73
2022/08/08 06:15:06;;;;;;;3.65;3.30;;;;;;;;;;5001665;28;20038;-72
2022/08/08 06:17:36;;;;;;;3.35;3.03;;;;;;;;;;4995916;28;20047;-73
2022/08/08 06:20:08;;;;;;;7.93;3.80;;;;;;;;;;4991580;28;20033;-73
2022/08/08 06:22:34;;;;;;;6.25;3.38;;;;;;;;;;4994129;28;20116;-74
2022/08/08 06:25:00;;;;;;;3.83;3.53;;;;;;;;;;5006138;28;20211;-72
2022/08/08 06:27:42;;;;;;;3.67;3.30;;;;;;;;;;5005806;28;20359;-74
2022/08/08 06:30:10;;;;;;;5.45;3.40;;;;;;;;;;5006303;28;20635;-76
2022/08/08 06:32:40;;;;;;;3.67;3.03;;;;;;;;;;5004174;28;20123;-74
2022/08/08 06:35:09;;;;;;;3.70;3.40;;;;;;;;;;5002461;28;20120;-75
2022/08/08 06:37:37;;;;;;;4.30;3.42;;;;;;;;;;5005376;28;20030;-76
2022/08/08 06:40:05;;;;;;;4.90;3.88;;;;;;;;;;5010553;28;20098;-76
2022/08/08 06:42:37;;;;;;;4.05;3.40;;;;;;;;;;5006427;28;20013;-74
2022/08/08 06:45:04;;;;;;;5.03;4.00;;;;;;;;;;5006710;28;20041;-75
2022/08/08 06:47:31;;;;;;;4.25;3.20;;;;;;;;;;5003354;28;20036;-75
2022/08/08 06:49:58;;;;;;;3.63;3.33;;;;;;;;;;5008889;28;20305;-77
2022/08/08 06:52:24;;;;;;;5.53;3.10;;;;;;;;;;5007843;28;20056;-75
2022/08/08 06:54:50;;;;;;;3.90;3.60;;;;;;;;;;5007950;28;20041;-76
2022/08/08 06:57:16;;;;;;;5.30;4.07;;;;;;;;;;5000215;28;20231;-75
2022/08/08 06:59:42;;;;;;;5.20;3.83;;;;;;;;;;4991876;28;20040;-75
2022/08/08 07:02:12;;;;;;;4.53;3.60;;;;;;;;;;4994991;28;20022;-75
2022/08/08 07:04:50;;;;;;;3.90;3.17;;;;;;;;;;4993254;28;20116;-76
2022/08/08 07:07:19;;;;;;;3.70;3.40;;;;;;;;;;4996742;28;20022;-74
2022/08/08 07:10:05;;;;;;;4.95;3.67;;;;;;;;;;4993783;28;20108;-74
2022/08/08 07:12:38;;;;;;;4.63;3.88;;;;;;;;;;4996518;28;20026;-74
2022/08/08 07:15:07;;;;;;;3.80;3.50;;;;;;;;;;4994699;28;20026;-74
2022/08/08 07:17:36;;;;;;;4.15;3.75;;;;;;;;;;4993620;28;20022;-74
2022/08/08 07:20:07;;;;;;;4.53;4.13;;;;;;;;;;4998103;28;20029;-74
2022/08/08 07:23:00;;;;;;;3.88;3.08;;;;;;;;;;4994041;28;20026;-74
2022/08/08 07:25:26;;;;;;;3.70;3.40;;;;;;;;;;4993202;28;20049;-74
2022/08/08 07:27:59;;;;;;;5.35;3.72;;;;;;;;;;5000857;28;20049;-75
2022/08/08 07:30:25;;;;;;;4.95;3.80;;;;;;;;;;4997291;28;20582;-75
2022/08/08 07:32:52;;;;;;;3.70;3.40;;;;;;;;;;4999861;28;20501;-74
2022/08/08 07:35:19;;;;;;;4.40;3.50;;;;;;;;;;4996430;28;20065;-74
2022/08/08 07:37:45;;;;;;;5.43;3.85;;;;;;;;;;4993879;28;20598;-74
2022/08/08 07:40:14;;;;;;;6.00;3.78;;;;;;;;;;4995481;28;20026;-74
2022/08/08 07:42:41;;;;;;;4.28;3.33;;;;;;;;;;5004144;28;20042;-74
2022/08/08 07:45:07;;;;;;;3.95;3.65;;;;;;;;;;5000675;28;20891;-74
2022/08/08 07:47:34;;;;;;;4.75;3.67;;;;;;;;;;4997535;28;20084;-75
2022/08/08 07:50:01;;;;;;;8.75;4.53;;;;;;;;;;4999250;28;20509;-74
2022/08/08 07:52:27;;;;;;;4.47;4.07;;;;;;;;;;4994964;28;20021;-75
2022/08/08 07:55:10;;;;;;;5.05;4.10;;;;;;;;;;4996145;28;20363;-75
2022/08/08 07:57:55;;;;;;;12.43;4.30;;;;;;;;;;4997782;28;20022;-75
2022/08/08 08:00:23;;;;;;;4.32;3.92;;;;;;;;;;4999496;28;20025;-76
2022/08/08 08:03:04;;;;;;;5.25;4.15;;;;;;;;;;4990756;28;20111;-76
2022/08/08 08:05:32;;;;;;;4.57;3.63;;;;;;;;;;4997374;28;20073;-75
2022/08/08 08:08:02;;;;;;;4.25;3.50;;;;;;;;;;4994811;28;20054;-76
2022/08/08 08:10:29;;;;;;;4.78;3.78;;;;;;;;;;4995883;28;20024;-76
2022/08/08 08:13:19;;;;;;;3.95;3.55;;;;;;;;;;4997620;28;20021;-75
2022/08/08 08:15:49;;;;;;;3.65;3.33;;;;;;;;;;4995239;28;20123;-76
2022/08/08 08:18:16;;;;;;;5.05;3.47;;;;;;;;;;4998199;28;20119;-76
2022/08/08 08:20:42;;;;;;;3.67;3.38;;;;;;;;;;4998338;28;20128;-76
2022/08/08 08:23:08;;;;;;;4.00;3.00;;;;;;;;;;4995296;28;20109;-75
2022/08/08 08:25:35;;;;;;;4.85;3.38;;;;;;;;;;5000576;28;20486;-74
2022/08/08 08:28:01;;;;;;;3.50;3.20;;;;;;;;;;4997546;28;20089;-74
2022/08/08 08:30:27;;;;;;;4.03;3.58;;;;;;;;;;4999503;28;20053;-74
2022/08/08 08:32:54;;;;;;;3.58;3.28;;;;;;;;;;5009489;28;20595;-74
2022/08/08 08:35:20;;;;;;;4.45;3.60;;;;;;;;;;5003502;28;20570;-74
2022/08/08 08:37:46;;;;;;;5.97;3.40;;;;;;;;;;5006252;28;20029;-74
2022/08/08 08:40:13;;;;;;;3.65;3.10;;;;;;;;;;5005553;28;20109;-74
2022/08/08 08:42:40;;;;;;;3.47;3.17;;;;;;;;;;5006050;28;20018;-74
2022/08/08 08:45:06;;;;;;;3.58;3.28;;;;;;;;;;5009467;28;20104;-74
2022/08/08 08:47:34;;;;;;;4.45;3.60;;;;;;;;;;5004367;28;20022;-74
2022/08/08 08:50:00;;;;;;;5.80;3.58;;;;;;;;;;5007582;28;20079;-74
2022/08/08 08:52:26;;;;;;;3.70;3.40;;;;;;;;;;5002427;28;20018;-74
2022/08/08 08:54:56;;;;;;;3.30;3.00;;;;;;;;;;5000249;28;20501;-74
2022/08/08 08:57:22;;;;;;;3.65;3.13;;;;;;;;;;4999729;28;20033;-74
2022/08/08 08:59:49;;;;;;;3.67;3.38;;;;;;;;;;4994625;28;20485;-74
2022/08/08 09:02:20;;;;;;;3.95;3.53;;;;;;;;;;4999560;28;20033;-73
2022/08/08 09:04:48;;;;;;;3.75;3.45;;;;;;;;;;5004952;28;20525;-74
2022/08/08 09:07:18;;;;;;;3.83;3.22;;;;;;;;;;5002989;28;20030;-74
2022/08/08 09:09:53;;;;;;;5.67;3.30;;;;;;;;;;5006745;28;20026;-73
2022/08/08 09:12:21;;;;;;;3.38;3.17;;;;;;;;;;5005014;28;20798;-73
2022/08/08 09:14:55;;;;;;;3.80;2.80;;;;;;;;;;5007357;28;20026;-73
2022/08/08 09:17:25;;;;;;;3.22;3.00;;;;;;;;;;5004547;28;20084;-73
2022/08/08 09:19:55;;;;;;;7.38;3.10;;;;;;;;;;5003671;28;20033;-73
2022/08/08 09:22:22;;;;;;;5.03;3.50;;;;;;;;;;5001354;28;20091;-73
2022/08/08 09:24:52;;;;;;;3.80;2.95;;;;;;;;;;5000122;28;20395;-73
2022/08/08 09:27:19;;;;;;;4.00;2.88;;;;;;;;;;5001669;28;20033;-73
2022/08/08 09:30:14;;;;;;;4.60;2.83;;;;;;;;;;4997059;28;20054;-73
2022/08/08 09:32:41;;;;;;;3.45;3.05;;;;;;;;;;4988545;28;20049;-73
2022/08/08 09:35:09;;;;;;;3.10;2.80;;;;;;;;;;4992465;28;20118;-74
2022/08/08 09:37:48;;;;;;;6.38;3.30;;;;;;;;;;5003026;28;21180;-74
2022/08/08 09:40:18;;;;;;;4.03;2.85;;;;;;;;;;4994660;28;20033;-74
2022/08/08 09:42:49;;;;;;;3.25;2.78;;;;;;;;;;4999351;28;20099;-75
2022/08/08 09:45:19;;;;;;;4.00;3.20;;;;;;;;;;4994910;28;20094;-76
2022/08/08 09:47:45;;;;;;;3.40;2.95;;;;;;;;;;5001196;28;20123;-76
2022/08/08 09:50:13;;;;;;;3.13;2.67;;;;;;;;;;4999156;28;20092;-77
2022/08/08 09:52:43;;;;;;;4.13;2.60;;;;;;;;;;5001037;28;20037;-76
2022/08/08 09:55:10;;;;;;;7.37;3.40;;;;;;;;;;5000948;28;20029;-77
2022/08/08 09:57:37;;;;;;;5.03;3.15;;;;;;;;;;4993437;28;20018;-76
2022/08/08 10:00:06;;;;;;;5.43;3.05;;;;;;;;;;4998550;28;20394;-76
2022/08/08 10:02:35;;;;;;;3.80;3.33;;;;;;;;;;4996705;28;20022;-75
2022/08/08 10:05:08;;;;;;;3.20;3.00;;;;;;;;;;4998167;28;20042;-75
2022/08/08 10:07:34;;;;;;;3.70;3.40;;;;;;;;;;4993705;28;20081;-75
2022/08/08 10:10:01;;;;;;;3.70;3.33;;;;;;;;;;4990903;28;20029;-75
2022/08/08 10:12:33;;;;;;;4.60;3.30;;;;;;;;;;4994296;28;20474;-76
2022/08/08 10:15:00;;;;;;;3.45;3.13;;;;;;;;;;4996570;28;20038;-75
2022/08/08 10:17:26;;;;;;;3.60;3.30;;;;;;;;;;4996899;28;20032;-76
2022/08/08 10:19:56;;;;;;;4.75;3.78;;;;;;;;;;4995107;28;20079;-76
2022/08/08 10:22:23;;;;;;;4.00;3.60;;;;;;;;;;4999708;28;20599;-76
2022/08/08 10:24:52;;;;;;;3.88;3.47;;;;;;;;;;4996858;28;20049;-75
2022/08/08 10:27:19;;;;;;;4.88;3.40;;;;;;;;;;4994128;28;20014;-75
2022/08/08 10:29:45;;;;;;;3.50;3.20;;;;;;;;;;5001417;28;20064;-76
2022/08/08 10:35:00;;;;;;;3.88;3.30;;;;;;;;;;5000021;28;20171;-76
2022/08/08 10:37:27;;;;;;;3.55;3.13;;;;;;;;;;4995567;28;20031;-75
2022/08/08 10:39:55;;;;;;;5.60;3.30;;;;;;;;;;4998645;28;20026;-74
2022/08/08 10:42:23;;;;;;;3.88;3.20;;;;;;;;;;4997179;28;20034;-74
2022/08/08 10:44:49;;;;;;;3.60;3.30;;;;;;;;;;4996176;28;20117;-74
2022/08/08 10:47:17;;;;;;;8.48;3.90;;;;;;;;;;4998602;28;20029;-74
2022/08/08 10:49:54;;;;;;;3.53;3.22;;;;;;;;;;4994788;28;20069;-74
2022/08/08 10:52:23;;;;;;;6.10;3.38;;;;;;;;;;5002796;28;20438;-75
2022/08/08 10:54:56;;;;;;;3.50;3.20;;;;;;;;;;4995972;28;20034;-74
2022/08/08 10:57:23;;;;;;;5.30;3.63;;;;;;;;;;5005004;28;20071;-74
2022/08/08 10:59:53;;;;;;;4.03;3.40;;;;;;;;;;5001292;28;20037;-74
2022/08/08 11:02:26;;;;;;;3.50;3.10;;;;;;;;;;5001024;28;20533;-74
2022/08/08 11:04:56;;;;;;;4.57;2.97;;;;;;;;;;4994911;28;20099;-74
2022/08/08 11:07:26;;;;;;;3.50;3.20;;;;;;;;;;4997780;28;20037;-74
2022/08/08 11:09:52;;;;;;;3.57;3.20;;;;;;;;;;4991650;28;20534;-74
2022/08/08 11:12:19;;;;;;;4.07;3.13;;;;;;;;;;4994051;28;20582;-74
2022/08/08 11:15:03;;;;;;;3.38;3.08;;;;;;;;;;4996266;28;20544;-74
2022/08/08 11:17:30;;;;;;;5.43;3.25;;;;;;;;;;4999377;28;20072;-74
2022/08/08 11:19:57;;;;;;;5.32;3.20;;;;;;;;;;4999705;28;20026;-73
2022/08/08 11:22:25;;;;;;;4.00;3.08;;;;;;;;;;4995206;28;20026;-74
2022/08/08 11:24:51;;;;;;;4.22;3.10;;;;;;;;;;4996803;28;20125;-74
2022/08/08 11:27:18;;;;;;;4.07;3.05;;;;;;;;;;4997710;28;20053;-74
2022/08/08 11:29:46;;;;;;;3.67;3.05;;;;;;;;;;4994017;28;21604;-74
2022/08/08 11:32:13;;;;;;;3.10;2.88;;;;;;;;;;4997131;28;20025;-74
2022/08/08 11:34:42;;;;;;;5.40;2.90;;;;;;;;;;4998387;28;20021;-74
2022/08/08 11:37:09;;;;;;;3.90;3.10;;;;;;;;;;4994622;28;20025;-74
2022/08/08 11:39:37;;;;;;;5.03;3.40;;;;;;;;;;4995189;28;20555;-73
2022/08/08 11:42:03;;;;;;;3.88;3.08;;;;;;;;;;4995948;28;20076;-74
2022/08/08 11:44:31;;;;;;;5.28;3.30;;;;;;;;;;4996911;28;20030;-74
2022/08/08 11:46:58;;;;;;;3.00;2.67;;;;;;;;;;4995618;28;20060;-73
2022/08/08 11:49:25;;;;;;;4.53;3.40;;;;;;;;;;5003092;28;20869;-73
2022/08/08 11:51:53;;;;;;;3.72;3.00;;;;;;;;;;5003702;28;20105;-74
2022/08/08 11:54:35;;;;;;;3.65;2.88;;;;;;;;;;5002782;28;20026;-73
2022/08/08 11:57:09;;;;;;;2.90;2.60;;;;;;;;;;5002962;28;20034;-74
2022/08/08 11:59:37;;;;;;;3.95;3.10;;;;;;;;;;5002676;28;20021;-74
2022/08/08 12:02:04;;;;;;;3.20;2.90;;;;;;;;;;5001485;28;20036;-73
2022/08/08 12:04:30;;;;;;;4.13;3.15;;;;;;;;;;5006236;28;20047;-73
2022/08/08 12:07:06;;;;;;;5.22;3.22;;;;;;;;;;5001950;28;20030;-73
2022/08/08 12:09:32;;;;;;;4.07;3.03;;;;;;;;;;5000819;28;20109;-73
2022/08/08 12:11:59;;;;;;;3.55;2.75;;;;;;;;;;5001846;28;20041;-74
2022/08/08 12:14:25;;;;;;;3.10;2.80;;;;;;;;;;4997676;28;20171;-73
2022/08/08 12:16:52;;;;;;;3.33;2.78;;;;;;;;;;5000947;28;20034;-73
2022/08/08 12:19:19;;;;;;;3.20;2.90;;;;;;;;;;4998434;28;20026;-74
2022/08/08 12:21:46;;;;;;;3.30;2.78;;;;;;;;;;5002155;28;20105;-73
2022/08/08 12:24:14;;;;;;;3.47;2.75;;;;;;;;;;4997394;28;20513;-73
2022/08/08 12:26:43;;;;;;;4.95;3.00;;;;;;;;;;5000454;28;20084;-73
2022/08/08 12:29:20;;;;;;;4.30;3.30;;;;;;;;;;4999964;28;20108;-74
2022/08/08 12:31:46;;;;;;;3.72;3.00;;;;;;;;;;5000334;28;20034;-73
2022/08/08 12:34:13;;;;;;;4.63;3.17;;;;;;;;;;5002824;28;20026;-74
2022/08/08 12:36:40;;;;;;;4.88;2.75;;;;;;;;;;5002566;28;20029;-74
2022/08/08 12:39:07;;;;;;;3.60;2.80;;;;;;;;;;5001267;28;20079;-74
2022/08/08 12:41:35;;;;;;;2.97;2.47;;;;;;;;;;5001021;28;20494;-73
2022/08/08 12:44:08;;;;;;;3.63;2.70;;;;;;;;;;5004018;28;20037;-73
2022/08/08 12:46:35;;;;;;;3.08;2.80;;;;;;;;;;5000059;28;20029;-74
2022/08/08 12:49:02;;;;;;;4.38;2.97;;;;;;;;;;4999365;28;20049;-73
2022/08/08 12:51:49;;;;;;;3.67;2.83;;;;;;;;;;5001476;28;20112;-74
2022/08/08 12:54:23;;;;;;;3.72;3.15;;;;;;;;;;4999274;28;20766;-77
2022/08/08 12:56:49;;;;;;;4.82;3.40;;;;;;;;;;4999190;28;20017;-74
2022/08/08 12:59:17;;;;;;;8.07;3.67;;;;;;;;;;5004534;28;20026;-75
2022/08/08 13:01:49;;;;;;;3.53;3.22;;;;;;;;;;5003661;28;20045;-77
2022/08/08 13:04:17;;;;;;;12.02;3.65;;;;;;;;;;5002897;28;20040;-73
2022/08/08 13:07:13;;;;;;;5.82;3.53;;;;;;;;;;5004006;28;20030;-75
2022/08/08 13:10:08;;;;;;;4.38;3.67;;;;;;;;;;4989511;28;20037;-76
2022/08/08 13:12:36;;;;;;;4.00;3.65;;;;;;;;;;4996578;28;20432;-72
2022/08/08 13:15:04;;;;;;;4.30;3.83;;;;;;;;;;5003495;28;20377;-73
2022/08/08 13:17:32;;;;;;;5.30;3.92;;;;;;;;;;4995193;28;20716;-73
2022/08/08 13:19:58;;;;;;;4.15;3.72;;;;;;;;;;5008196;28;20079;-73
2022/08/08 13:22:25;;;;;;;4.45;3.40;;;;;;;;;;4999003;28;20036;-74
2022/08/08 13:24:52;;;;;;;4.30;3.53;;;;;;;;;;4995887;28;20096;-73
2022/08/08 13:27:27;;;;;;;5.50;3.83;;;;;;;;;;4994560;28;20022;-73
2022/08/08 13:30:01;;;;;;;4.00;3.60;;;;;;;;;;4998849;28;20052;-73
2022/08/08 13:32:29;;;;;;;4.10;3.65;;;;;;;;;;4993859;28;20022;-73
2022/08/08 13:34:56;;;;;;;4.45;4.00;;;;;;;;;;5002871;28;20367;-73
2022/08/08 13:37:24;;;;;;;4.20;3.75;;;;;;;;;;4999954;28;20017;-73
2022/08/08 13:39:51;;;;;;;5.05;4.13;;;;;;;;;;4996207;28;20033;-73
2022/08/08 13:42:21;;;;;;;5.80;3.80;;;;;;;;;;4998641;28;20109;-74
2022/08/08 13:44:54;;;;;;;5.05;3.80;;;;;;;;;;5000610;28;20594;-74
2022/08/08 13:47:21;;;;;;;4.63;4.03;;;;;;;;;;5001455;28;20026;-73
2022/08/08 13:50:00;;;;;;;4.85;3.80;;;;;;;;;;4998201;28;20348;-74
2022/08/08 13:52:26;;;;;;;3.63;3.33;;;;;;;;;;4997391;28;20022;-73
2022/08/08 13:54:57;;;;;;;3.70;3.15;;;;;;;;;;4998216;28;20062;-73
2022/08/08 13:57:30;;;;;;;3.53;3.22;;;;;;;;;;5000715;28;20101;-73
2022/08/08 14:00:20;;;;;;;4.90;3.60;;;;;;;;;;4997835;28;20025;-73
2022/08/08 14:03:16;;;;;;;4.63;3.90;;;;;;;;;;5002396;28;20026;-73
2022/08/08 14:05:42;;;;;;;5.00;4.15;;;;;;;;;;4991513;28;20697;-73
2022/08/08 14:08:08;;;;;;;4.13;3.80;;;;;;;;;;4996764;28;20022;-73
2022/08/08 14:10:36;;;;;;;4.90;3.88;;;;;;;;;;5002091;28;20045;-73
2022/08/08 14:13:11;;;;;;;3.95;3.55;;;;;;;;;;5000517;28;20093;-73
2022/08/08 14:15:39;;;;;;;6.00;4.05;;;;;;;;;;4998204;28;20045;-73
2022/08/08 14:18:06;;;;;;;4.97;3.40;;;;;;;;;;4998126;28;20036;-73
2022/08/08 14:20:32;;;;;;;5.80;3.40;;;;;;;;;;4993927;28;20022;-73
2022/08/08 14:23:08;;;;;;;4.10;3.70;;;;;;;;;;4998502;28;20096;-73
2022/08/08 14:25:43;;;;;;;4.18;3.78;;;;;;;;;;4997207;28;20125;-73
2022/08/08 14:28:09;;;;;;;7.35;3.70;;;;;;;;;;4996805;28;20037;-73
2022/08/08 14:30:36;;;;;;;4.95;3.78;;;;;;;;;;4995925;28;20024;-73
2022/08/08 14:33:03;;;;;;;6.47;4.03;;;;;;;;;;4999077;28;20832;-73
2022/08/08 14:35:29;;;;;;;9.23;4.35;;;;;;;;;;4997277;28;20467;-73
2022/08/08 14:38:00;;;;;;;5.05;3.92;;;;;;;;;;4999316;28;20022;-73
2022/08/08 14:40:30;;;;;;;4.97;3.80;;;;;;;;;;4994110;28;20533;-73
2022/08/08 14:42:58;;;;;;;6.93;3.85;;;;;;;;;;4999034;28;20044;-74
2022/08/08 14:45:25;;;;;;;4.18;3.63;;;;;;;;;;4996211;28;20065;-73
2022/08/08 14:47:51;;;;;;;5.72;4.20;;;;;;;;;;4997996;28;20088;-73
2022/08/08 14:50:20;;;;;;;4.22;3.72;;;;;;;;;;4998046;28;20088;-73
2022/08/08 14:52:53;;;;;;;4.00;3.63;;;;;;;;;;4995736;28;20524;-72
2022/08/08 14:55:19;;;;;;;4.05;3.35;;;;;;;;;;4997794;28;20029;-72
2022/08/08 14:57:45;;;;;;;4.00;3.60;;;;;;;;;;4997406;28;20037;-72
2022/08/08 15:00:12;;;;;;;6.57;3.70;;;;;;;;;;4999762;28;20395;-72
2022/08/08 15:02:39;;;;;;;4.05;3.50;;;;;;;;;;4996178;28;20036;-72
2022/08/08 15:05:07;;;;;;;4.20;3.80;;;;;;;;;;4998067;28;20034;-72
2022/08/08 15:07:34;;;;;;;6.57;3.90;;;;;;;;;;4997608;28;20030;-72
2022/08/08 15:10:00;;;;;;;4.53;3.95;;;;;;;;;;4999760;28;20809;-72
2022/08/08 15:12:27;;;;;;;6.13;3.75;;;;;;;;;;5005463;28;20101;-72